sensor_id;sensor_type;location;lat;lon;timestamp;P1;durP1;ratioP1;P2;durP2;ratioP2
11731;SDS011;5922;53.734;10.258;2022-11-15T00:00:46;29.07;;;19.80;;
11731;SDS011;5922;53.734;10.258;2022-11-15T00:03:13;28.70;;;19.67;;
11731;SDS011;5922;53.734;10.258;2022-11-15T00:05:41;27.13;;;19.83;;
11731;SDS011;5922;53.734;10.258;2022-11-15T00:08:09;29.40;;;20.37;;
11731;SDS011;5922;53.734;10.258;2022-11-15T00:10:37;28.27;;;19.50;;
11731;SDS011;5922;53.734;10.258;2022-11-15T00:13:05;24.60;;;19.27;;
11731;SDS011;5922;53.734;10.258;2022-11-15T00:15:34;27.60;;;19.97;;
11731;SDS011;5922;53.734;10.258;2022-11-15T00:18:01;27.50;;;19.80;;
11731;SDS011;5922;53.734;10.258;2022-11-15T00:20:28;24.67;;;19.37;;
11731;SDS011;5922;53.734;10.258;2022-11-15T00:22:56;26.47;;;19.43;;
11731;SDS011;5922;53.734;10.258;2022-11-15T00:25:24;27.87;;;19.90;;
11731;SDS011;5922;53.734;10.258;2022-11-15T00:27:54;27.23;;;19.60;;
11731;SDS011;5922;53.734;10.258;2022-11-15T00:30:21;29.30;;;19.23;;
11731;SDS011;5922;53.734;10.258;2022-11-15T00:32:49;27.67;;;19.67;;
11731;SDS011;5922;53.734;10.258;2022-11-15T00:35:16;26.60;;;20.20;;
11731;SDS011;5922;53.734;10.258;2022-11-15T00:37:43;24.57;;;19.37;;
11731;SDS011;5922;53.734;10.258;2022-11-15T00:40:12;26.87;;;19.40;;
11731;SDS011;5922;53.734;10.258;2022-11-15T00:42:41;27.13;;;19.40;;
11731;SDS011;5922;53.734;10.258;2022-11-15T00:45:08;28.07;;;19.40;;
11731;SDS011;5922;53.734;10.258;2022-11-15T00:47:36;24.87;;;18.63;;
11731;SDS011;5922;53.734;10.258;2022-11-15T00:50:03;26.60;;;19.43;;
11731;SDS011;5922;53.734;10.258;2022-11-15T00:52:31;25.70;;;18.87;;
11731;SDS011;5922;53.734;10.258;2022-11-15T00:54:58;25.57;;;18.13;;
11731;SDS011;5922;53.734;10.258;2022-11-15T00:57:25;29.83;;;19.10;;
11731;SDS011;5922;53.734;10.258;2022-11-15T00:59:54;26.73;;;19.13;;
11731;SDS011;5922;53.734;10.258;2022-11-15T01:02:21;26.40;;;18.87;;
11731;SDS011;5922;53.734;10.258;2022-11-15T01:04:48;26.33;;;18.67;;
11731;SDS011;5922;53.734;10.258;2022-11-15T01:07:15;25.10;;;18.97;;
11731;SDS011;5922;53.734;10.258;2022-11-15T01:09:42;27.57;;;18.73;;
11731;SDS011;5922;53.734;10.258;2022-11-15T01:12:09;24.03;;;18.43;;
11731;SDS011;5922;53.734;10.258;2022-11-15T01:14:37;24.87;;;18.63;;
11731;SDS011;5922;53.734;10.258;2022-11-15T01:17:05;26.07;;;19.20;;
11731;SDS011;5922;53.734;10.258;2022-11-15T01:19:33;25.43;;;18.20;;
11731;SDS011;5922;53.734;10.258;2022-11-15T01:22:00;24.13;;;19.03;;
11731;SDS011;5922;53.734;10.258;2022-11-15T01:24:27;24.87;;;18.43;;
11731;SDS011;5922;53.734;10.258;2022-11-15T01:26:54;26.17;;;18.37;;
11731;SDS011;5922;53.734;10.258;2022-11-15T01:29:22;25.73;;;18.20;;
11731;SDS011;5922;53.734;10.258;2022-11-15T01:31:49;26.43;;;17.87;;
11731;SDS011;5922;53.734;10.258;2022-11-15T01:34:17;25.57;;;18.57;;
11731;SDS011;5922;53.734;10.258;2022-11-15T01:36:45;24.73;;;17.37;;
11731;SDS011;5922;53.734;10.258;2022-11-15T01:39:12;25.37;;;17.90;;
11731;SDS011;5922;53.734;10.258;2022-11-15T01:41:40;23.67;;;17.83;;
11731;SDS011;5922;53.734;10.258;2022-11-15T01:44:31;27.80;;;18.90;;
11731;SDS011;5922;53.734;10.258;2022-11-15T01:46:59;23.83;;;18.20;;
11731;SDS011;5922;53.734;10.258;2022-11-15T01:49:30;25.23;;;18.10;;
11731;SDS011;5922;53.734;10.258;2022-11-15T01:51:59;27.00;;;18.00;;
11731;SDS011;5922;53.734;10.258;2022-11-15T01:54:27;27.70;;;19.37;;
11731;SDS011;5922;53.734;10.258;2022-11-15T01:56:55;24.87;;;19.07;;
11731;SDS011;5922;53.734;10.258;2022-11-15T01:59:23;25.70;;;18.00;;
11731;SDS011;5922;53.734;10.258;2022-11-15T02:01:50;25.43;;;18.73;;
11731;SDS011;5922;53.734;10.258;2022-11-15T02:04:18;25.23;;;18.97;;
11731;SDS011;5922;53.734;10.258;2022-11-15T02:10:04;26.53;;;18.57;;
11731;SDS011;5922;53.734;10.258;2022-11-15T02:12:37;22.17;;;17.00;;
11731;SDS011;5922;53.734;10.258;2022-11-15T02:15:08;27.20;;;18.20;;
11731;SDS011;5922;53.734;10.258;2022-11-15T02:17:54;26.23;;;18.17;;
11731;SDS011;5922;53.734;10.258;2022-11-15T02:20:34;25.40;;;18.00;;
11731;SDS011;5922;53.734;10.258;2022-11-15T02:23:16;25.17;;;18.27;;
11731;SDS011;5922;53.734;10.258;2022-11-15T02:25:57;23.93;;;18.27;;
11731;SDS011;5922;53.734;10.258;2022-11-15T02:31:24;24.10;;;18.27;;
11731;SDS011;5922;53.734;10.258;2022-11-15T02:33:59;24.10;;;17.50;;
11731;SDS011;5922;53.734;10.258;2022-11-15T02:36:34;22.90;;;17.77;;
11731;SDS011;5922;53.734;10.258;2022-11-15T02:39:05;22.47;;;17.03;;
11731;SDS011;5922;53.734;10.258;2022-11-15T02:41:38;24.20;;;17.93;;
11731;SDS011;5922;53.734;10.258;2022-11-15T02:44:12;24.13;;;17.67;;
11731;SDS011;5922;53.734;10.258;2022-11-15T02:46:45;23.00;;;17.13;;
11731;SDS011;5922;53.734;10.258;2022-11-15T02:49:31;22.50;;;16.80;;
11731;SDS011;5922;53.734;10.258;2022-11-15T02:51:59;23.33;;;16.93;;
11731;SDS011;5922;53.734;10.258;2022-11-15T02:54:52;25.03;;;17.67;;
11731;SDS011;5922;53.734;10.258;2022-11-15T02:57:24;25.13;;;17.30;;
11731;SDS011;5922;53.734;10.258;2022-11-15T03:00:01;27.27;;;17.40;;
11731;SDS011;5922;53.734;10.258;2022-11-15T03:05:19;23.17;;;17.63;;
11731;SDS011;5922;53.734;10.258;2022-11-15T03:07:53;25.23;;;17.20;;
11731;SDS011;5922;53.734;10.258;2022-11-15T03:10:25;23.30;;;16.93;;
11731;SDS011;5922;53.734;10.258;2022-11-15T03:13:06;24.83;;;17.83;;
11731;SDS011;5922;53.734;10.258;2022-11-15T03:15:37;23.67;;;16.87;;
11731;SDS011;5922;53.734;10.258;2022-11-15T03:18:07;23.50;;;17.20;;
11731;SDS011;5922;53.734;10.258;2022-11-15T03:20:39;24.63;;;17.43;;
11731;SDS011;5922;53.734;10.258;2022-11-15T03:23:08;23.10;;;17.50;;
11731;SDS011;5922;53.734;10.258;2022-11-15T03:25:40;22.93;;;16.27;;
11731;SDS011;5922;53.734;10.258;2022-11-15T03:28:18;25.90;;;18.30;;
11731;SDS011;5922;53.734;10.258;2022-11-15T03:30:49;22.90;;;17.53;;
11731;SDS011;5922;53.734;10.258;2022-11-15T03:33:18;24.77;;;17.70;;
11731;SDS011;5922;53.734;10.258;2022-11-15T03:35:54;23.03;;;16.50;;
11731;SDS011;5922;53.734;10.258;2022-11-15T03:38:25;22.43;;;16.70;;
11731;SDS011;5922;53.734;10.258;2022-11-15T03:40:58;25.53;;;16.60;;
11731;SDS011;5922;53.734;10.258;2022-11-15T03:43:30;23.37;;;16.60;;
11731;SDS011;5922;53.734;10.258;2022-11-15T03:46:02;24.23;;;16.77;;
11731;SDS011;5922;53.734;10.258;2022-11-15T03:48:33;23.50;;;16.60;;
11731;SDS011;5922;53.734;10.258;2022-11-15T03:51:04;22.13;;;16.63;;
11731;SDS011;5922;53.734;10.258;2022-11-15T03:53:31;26.20;;;16.50;;
11731;SDS011;5922;53.734;10.258;2022-11-15T03:55:59;22.50;;;16.03;;
11731;SDS011;5922;53.734;10.258;2022-11-15T03:58:26;20.77;;;15.73;;
11731;SDS011;5922;53.734;10.258;2022-11-15T04:00:53;22.93;;;16.27;;
11731;SDS011;5922;53.734;10.258;2022-11-15T04:03:21;21.30;;;16.40;;
11731;SDS011;5922;53.734;10.258;2022-11-15T04:05:48;23.83;;;16.53;;
11731;SDS011;5922;53.734;10.258;2022-11-15T04:08:17;25.50;;;17.03;;
11731;SDS011;5922;53.734;10.258;2022-11-15T04:10:44;21.90;;;15.83;;
11731;SDS011;5922;53.734;10.258;2022-11-15T04:13:19;23.03;;;16.80;;
11731;SDS011;5922;53.734;10.258;2022-11-15T04:15:46;26.23;;;17.37;;
11731;SDS011;5922;53.734;10.258;2022-11-15T04:18:13;19.27;;;15.47;;
11731;SDS011;5922;53.734;10.258;2022-11-15T04:20:41;21.37;;;16.00;;
11731;SDS011;5922;53.734;10.258;2022-11-15T04:23:26;21.57;;;16.40;;
11731;SDS011;5922;53.734;10.258;2022-11-15T04:26:25;21.63;;;16.27;;
11731;SDS011;5922;53.734;10.258;2022-11-15T04:28:53;22.13;;;16.03;;
11731;SDS011;5922;53.734;10.258;2022-11-15T04:31:52;24.83;;;16.70;;
11731;SDS011;5922;53.734;10.258;2022-11-15T04:34:22;23.93;;;15.80;;
11731;SDS011;5922;53.734;10.258;2022-11-15T04:36:49;21.90;;;15.63;;
11731;SDS011;5922;53.734;10.258;2022-11-15T04:39:36;21.53;;;16.00;;
11731;SDS011;5922;53.734;10.258;2022-11-15T04:42:03;21.67;;;16.17;;
11731;SDS011;5922;53.734;10.258;2022-11-15T04:44:31;20.53;;;15.07;;
11731;SDS011;5922;53.734;10.258;2022-11-15T04:46:58;19.47;;;15.20;;
11731;SDS011;5922;53.734;10.258;2022-11-15T04:49:26;21.00;;;15.77;;
11731;SDS011;5922;53.734;10.258;2022-11-15T04:51:55;19.73;;;15.33;;
11731;SDS011;5922;53.734;10.258;2022-11-15T04:54:23;19.87;;;15.20;;
11731;SDS011;5922;53.734;10.258;2022-11-15T04:56:53;25.10;;;16.43;;
11731;SDS011;5922;53.734;10.258;2022-11-15T04:59:21;23.07;;;16.23;;
11731;SDS011;5922;53.734;10.258;2022-11-15T05:01:51;22.87;;;16.97;;
11731;SDS011;5922;53.734;10.258;2022-11-15T05:04:22;24.57;;;17.13;;
11731;SDS011;5922;53.734;10.258;2022-11-15T05:06:48;19.97;;;15.13;;
11731;SDS011;5922;53.734;10.258;2022-11-15T05:09:16;22.70;;;16.40;;
11731;SDS011;5922;53.734;10.258;2022-11-15T05:11:44;22.50;;;15.20;;
11731;SDS011;5922;53.734;10.258;2022-11-15T05:14:13;23.20;;;16.70;;
11731;SDS011;5922;53.734;10.258;2022-11-15T05:16:40;19.43;;;15.57;;
11731;SDS011;5922;53.734;10.258;2022-11-15T05:19:08;21.40;;;15.13;;
11731;SDS011;5922;53.734;10.258;2022-11-15T05:21:35;22.83;;;15.77;;
11731;SDS011;5922;53.734;10.258;2022-11-15T05:24:03;20.73;;;16.10;;
11731;SDS011;5922;53.734;10.258;2022-11-15T05:26:30;19.87;;;15.33;;
11731;SDS011;5922;53.734;10.258;2022-11-15T05:28:58;21.23;;;16.00;;
11731;SDS011;5922;53.734;10.258;2022-11-15T05:31:29;21.67;;;16.40;;
11731;SDS011;5922;53.734;10.258;2022-11-15T05:34:04;21.57;;;16.07;;
11731;SDS011;5922;53.734;10.258;2022-11-15T05:36:33;20.13;;;15.40;;
11731;SDS011;5922;53.734;10.258;2022-11-15T05:39:01;24.27;;;16.20;;
11731;SDS011;5922;53.734;10.258;2022-11-15T05:41:30;25.53;;;16.57;;
11731;SDS011;5922;53.734;10.258;2022-11-15T05:43:58;21.47;;;15.47;;
11731;SDS011;5922;53.734;10.258;2022-11-15T05:46:26;20.80;;;15.87;;
11731;SDS011;5922;53.734;10.258;2022-11-15T05:49:06;20.43;;;15.60;;
11731;SDS011;5922;53.734;10.258;2022-11-15T05:51:37;23.47;;;16.20;;
11731;SDS011;5922;53.734;10.258;2022-11-15T05:54:04;21.63;;;16.10;;
11731;SDS011;5922;53.734;10.258;2022-11-15T05:56:31;22.53;;;16.80;;
11731;SDS011;5922;53.734;10.258;2022-11-15T05:58:59;20.70;;;16.00;;
11731;SDS011;5922;53.734;10.258;2022-11-15T06:01:26;22.47;;;16.30;;
11731;SDS011;5922;53.734;10.258;2022-11-15T06:03:55;19.80;;;15.00;;
11731;SDS011;5922;53.734;10.258;2022-11-15T06:06:23;20.50;;;15.47;;
11731;SDS011;5922;53.734;10.258;2022-11-15T06:08:50;19.47;;;15.60;;
11731;SDS011;5922;53.734;10.258;2022-11-15T06:11:18;20.53;;;15.40;;
11731;SDS011;5922;53.734;10.258;2022-11-15T06:13:45;20.03;;;16.00;;
11731;SDS011;5922;53.734;10.258;2022-11-15T06:16:12;19.93;;;14.97;;
11731;SDS011;5922;53.734;10.258;2022-11-15T06:18:47;20.90;;;16.03;;
11731;SDS011;5922;53.734;10.258;2022-11-15T06:21:25;20.43;;;15.53;;
11731;SDS011;5922;53.734;10.258;2022-11-15T06:23:56;20.10;;;15.37;;
11731;SDS011;5922;53.734;10.258;2022-11-15T06:26:36;22.03;;;16.10;;
11731;SDS011;5922;53.734;10.258;2022-11-15T06:29:04;21.43;;;15.30;;
11731;SDS011;5922;53.734;10.258;2022-11-15T06:31:31;20.93;;;15.77;;
11731;SDS011;5922;53.734;10.258;2022-11-15T06:34:00;21.37;;;15.83;;
11731;SDS011;5922;53.734;10.258;2022-11-15T06:36:29;21.57;;;15.50;;
11731;SDS011;5922;53.734;10.258;2022-11-15T06:39:04;21.43;;;15.53;;
11731;SDS011;5922;53.734;10.258;2022-11-15T06:41:37;24.03;;;15.97;;
11731;SDS011;5922;53.734;10.258;2022-11-15T06:44:32;19.20;;;14.77;;
11731;SDS011;5922;53.734;10.258;2022-11-15T06:47:16;22.00;;;15.63;;
11731;SDS011;5922;53.734;10.258;2022-11-15T06:49:54;20.30;;;16.07;;
11731;SDS011;5922;53.734;10.258;2022-11-15T06:52:43;20.20;;;14.60;;
11731;SDS011;5922;53.734;10.258;2022-11-15T06:55:24;18.07;;;14.73;;
11731;SDS011;5922;53.734;10.258;2022-11-15T06:57:53;19.23;;;15.33;;
11731;SDS011;5922;53.734;10.258;2022-11-15T07:00:23;18.23;;;14.70;;
11731;SDS011;5922;53.734;10.258;2022-11-15T07:03:10;21.33;;;15.70;;
11731;SDS011;5922;53.734;10.258;2022-11-15T07:05:54;22.10;;;16.40;;
11731;SDS011;5922;53.734;10.258;2022-11-15T07:08:33;21.00;;;15.80;;
11731;SDS011;5922;53.734;10.258;2022-11-15T07:11:04;22.27;;;15.23;;
11731;SDS011;5922;53.734;10.258;2022-11-15T07:13:35;20.47;;;14.63;;
11731;SDS011;5922;53.734;10.258;2022-11-15T07:16:09;19.40;;;14.73;;
11731;SDS011;5922;53.734;10.258;2022-11-15T07:18:39;19.00;;;14.37;;
11731;SDS011;5922;53.734;10.258;2022-11-15T07:21:08;19.47;;;14.67;;
11731;SDS011;5922;53.734;10.258;2022-11-15T07:23:39;18.97;;;14.23;;
11731;SDS011;5922;53.734;10.258;2022-11-15T07:26:09;20.33;;;15.37;;
11731;SDS011;5922;53.734;10.258;2022-11-15T07:28:37;20.93;;;15.23;;
11731;SDS011;5922;53.734;10.258;2022-11-15T07:31:07;20.83;;;14.17;;
11731;SDS011;5922;53.734;10.258;2022-11-15T07:33:40;18.13;;;14.20;;
11731;SDS011;5922;53.734;10.258;2022-11-15T07:36:09;19.03;;;14.40;;
11731;SDS011;5922;53.734;10.258;2022-11-15T07:38:53;17.60;;;13.73;;
11731;SDS011;5922;53.734;10.258;2022-11-15T07:41:23;16.93;;;14.00;;
11731;SDS011;5922;53.734;10.258;2022-11-15T07:43:58;19.23;;;15.10;;
11731;SDS011;5922;53.734;10.258;2022-11-15T07:46:29;21.27;;;15.50;;
11731;SDS011;5922;53.734;10.258;2022-11-15T07:49:00;19.43;;;14.87;;
11731;SDS011;5922;53.734;10.258;2022-11-15T07:51:32;21.40;;;15.43;;
11731;SDS011;5922;53.734;10.258;2022-11-15T07:57:20;17.77;;;13.90;;
11731;SDS011;5922;53.734;10.258;2022-11-15T08:00:05;20.57;;;14.70;;
11731;SDS011;5922;53.734;10.258;2022-11-15T08:02:51;18.80;;;13.87;;
11731;SDS011;5922;53.734;10.258;2022-11-15T08:05:36;18.80;;;13.97;;
11731;SDS011;5922;53.734;10.258;2022-11-15T08:08:04;19.37;;;14.33;;
11731;SDS011;5922;53.734;10.258;2022-11-15T08:10:32;18.73;;;14.47;;
11731;SDS011;5922;53.734;10.258;2022-11-15T08:13:01;16.43;;;12.90;;
11731;SDS011;5922;53.734;10.258;2022-11-15T08:15:29;19.23;;;13.93;;
11731;SDS011;5922;53.734;10.258;2022-11-15T08:17:56;17.07;;;13.50;;
11731;SDS011;5922;53.734;10.258;2022-11-15T08:20:24;16.83;;;12.33;;
11731;SDS011;5922;53.734;10.258;2022-11-15T08:22:54;17.13;;;13.17;;
11731;SDS011;5922;53.734;10.258;2022-11-15T08:25:21;19.03;;;13.70;;
11731;SDS011;5922;53.734;10.258;2022-11-15T08:27:51;18.97;;;14.30;;
11731;SDS011;5922;53.734;10.258;2022-11-15T08:30:20;15.60;;;12.97;;
11731;SDS011;5922;53.734;10.258;2022-11-15T08:32:47;21.53;;;13.40;;
11731;SDS011;5922;53.734;10.258;2022-11-15T08:35:15;17.07;;;12.67;;
11731;SDS011;5922;53.734;10.258;2022-11-15T08:37:42;16.47;;;13.40;;
11731;SDS011;5922;53.734;10.258;2022-11-15T08:40:09;17.00;;;13.80;;
11731;SDS011;5922;53.734;10.258;2022-11-15T08:42:38;16.90;;;13.23;;
11731;SDS011;5922;53.734;10.258;2022-11-15T08:45:05;16.50;;;13.17;;
11731;SDS011;5922;53.734;10.258;2022-11-15T08:47:34;15.20;;;12.60;;
11731;SDS011;5922;53.734;10.258;2022-11-15T08:50:02;16.83;;;12.47;;
11731;SDS011;5922;53.734;10.258;2022-11-15T08:52:29;18.77;;;12.70;;
11731;SDS011;5922;53.734;10.258;2022-11-15T08:54:56;18.53;;;12.90;;
11731;SDS011;5922;53.734;10.258;2022-11-15T08:57:23;17.07;;;13.40;;
11731;SDS011;5922;53.734;10.258;2022-11-15T08:59:51;14.87;;;11.67;;
11731;SDS011;5922;53.734;10.258;2022-11-15T09:02:18;16.37;;;12.67;;
11731;SDS011;5922;53.734;10.258;2022-11-15T09:04:47;17.03;;;12.93;;
11731;SDS011;5922;53.734;10.258;2022-11-15T09:07:14;17.47;;;13.33;;
11731;SDS011;5922;53.734;10.258;2022-11-15T09:09:41;16.97;;;12.77;;
11731;SDS011;5922;53.734;10.258;2022-11-15T09:12:09;17.00;;;12.90;;
11731;SDS011;5922;53.734;10.258;2022-11-15T09:14:36;17.33;;;12.07;;
11731;SDS011;5922;53.734;10.258;2022-11-15T09:17:06;15.03;;;12.23;;
11731;SDS011;5922;53.734;10.258;2022-11-15T09:19:33;19.03;;;12.70;;
11731;SDS011;5922;53.734;10.258;2022-11-15T09:22:03;17.57;;;12.43;;
11731;SDS011;5922;53.734;10.258;2022-11-15T09:24:32;17.50;;;12.37;;
11731;SDS011;5922;53.734;10.258;2022-11-15T09:26:59;16.77;;;12.97;;
11731;SDS011;5922;53.734;10.258;2022-11-15T09:29:26;16.47;;;12.20;;
11731;SDS011;5922;53.734;10.258;2022-11-15T09:31:53;15.53;;;12.50;;
11731;SDS011;5922;53.734;10.258;2022-11-15T09:34:20;15.87;;;12.30;;
11731;SDS011;5922;53.734;10.258;2022-11-15T09:36:48;16.43;;;12.27;;
11731;SDS011;5922;53.734;10.258;2022-11-15T09:39:16;18.53;;;11.97;;
11731;SDS011;5922;53.734;10.258;2022-11-15T09:41:49;15.17;;;12.20;;
11731;SDS011;5922;53.734;10.258;2022-11-15T09:44:32;15.67;;;11.93;;
11731;SDS011;5922;53.734;10.258;2022-11-15T09:47:05;17.30;;;12.23;;
11731;SDS011;5922;53.734;10.258;2022-11-15T09:49:35;13.17;;;11.43;;
11731;SDS011;5922;53.734;10.258;2022-11-15T09:52:02;14.93;;;11.17;;
11731;SDS011;5922;53.734;10.258;2022-11-15T09:54:32;19.87;;;11.90;;
11731;SDS011;5922;53.734;10.258;2022-11-15T09:57:03;13.77;;;11.40;;
11731;SDS011;5922;53.734;10.258;2022-11-15T09:59:40;17.47;;;11.97;;
11731;SDS011;5922;53.734;10.258;2022-11-15T10:02:14;14.13;;;11.73;;
11731;SDS011;5922;53.734;10.258;2022-11-15T10:04:45;18.80;;;11.83;;
11731;SDS011;5922;53.734;10.258;2022-11-15T10:07:13;13.10;;;10.43;;
11731;SDS011;5922;53.734;10.258;2022-11-15T10:09:45;16.87;;;11.70;;
11731;SDS011;5922;53.734;10.258;2022-11-15T10:12:14;15.37;;;11.10;;
11731;SDS011;5922;53.734;10.258;2022-11-15T10:14:42;14.83;;;10.97;;
11731;SDS011;5922;53.734;10.258;2022-11-15T10:17:14;13.73;;;11.37;;
11731;SDS011;5922;53.734;10.258;2022-11-15T10:19:49;12.93;;;11.00;;
11731;SDS011;5922;53.734;10.258;2022-11-15T10:22:21;14.17;;;10.77;;
11731;SDS011;5922;53.734;10.258;2022-11-15T10:24:58;13.73;;;10.67;;
11731;SDS011;5922;53.734;10.258;2022-11-15T10:27:27;14.73;;;10.83;;
11731;SDS011;5922;53.734;10.258;2022-11-15T10:29:56;13.87;;;10.63;;
11731;SDS011;5922;53.734;10.258;2022-11-15T10:32:23;17.00;;;11.60;;
11731;SDS011;5922;53.734;10.258;2022-11-15T10:34:50;14.87;;;10.63;;
11731;SDS011;5922;53.734;10.258;2022-11-15T10:37:26;15.93;;;10.77;;
11731;SDS011;5922;53.734;10.258;2022-11-15T10:40:03;17.47;;;10.80;;
11731;SDS011;5922;53.734;10.258;2022-11-15T10:42:30;11.20;;;10.00;;
11731;SDS011;5922;53.734;10.258;2022-11-15T10:44:58;12.80;;;10.57;;
11731;SDS011;5922;53.734;10.258;2022-11-15T10:47:26;12.97;;;10.67;;
11731;SDS011;5922;53.734;10.258;2022-11-15T10:49:55;14.27;;;9.93;;
11731;SDS011;5922;53.734;10.258;2022-11-15T10:52:22;12.70;;;10.13;;
11731;SDS011;5922;53.734;10.258;2022-11-15T10:54:51;13.13;;;9.97;;
11731;SDS011;5922;53.734;10.258;2022-11-15T10:57:22;12.43;;;10.27;;
11731;SDS011;5922;53.734;10.258;2022-11-15T10:59:51;15.60;;;10.47;;
11731;SDS011;5922;53.734;10.258;2022-11-15T11:05:05;13.17;;;10.67;;
11731;SDS011;5922;53.734;10.258;2022-11-15T11:07:34;13.07;;;10.30;;
11731;SDS011;5922;53.734;10.258;2022-11-15T11:10:03;13.90;;;10.70;;
11731;SDS011;5922;53.734;10.258;2022-11-15T11:12:33;12.67;;;10.03;;
11731;SDS011;5922;53.734;10.258;2022-11-15T11:15:05;12.43;;;9.70;;
11731;SDS011;5922;53.734;10.258;2022-11-15T11:17:42;13.23;;;9.97;;
11731;SDS011;5922;53.734;10.258;2022-11-15T11:20:15;11.70;;;9.40;;
11731;SDS011;5922;53.734;10.258;2022-11-15T11:22:49;16.00;;;9.77;;
11731;SDS011;5922;53.734;10.258;2022-11-15T11:25:22;15.53;;;9.73;;
11731;SDS011;5922;53.734;10.258;2022-11-15T11:27:58;13.00;;;10.07;;
11731;SDS011;5922;53.734;10.258;2022-11-15T11:30:30;12.73;;;10.00;;
11731;SDS011;5922;53.734;10.258;2022-11-15T11:33:03;13.20;;;9.50;;
11731;SDS011;5922;53.734;10.258;2022-11-15T11:35:33;14.63;;;10.00;;
11731;SDS011;5922;53.734;10.258;2022-11-15T11:38:11;14.50;;;9.67;;
11731;SDS011;5922;53.734;10.258;2022-11-15T11:40:43;12.57;;;9.43;;
11731;SDS011;5922;53.734;10.258;2022-11-15T11:43:15;11.43;;;9.27;;
11731;SDS011;5922;53.734;10.258;2022-11-15T11:45:51;10.70;;;9.47;;
11731;SDS011;5922;53.734;10.258;2022-11-15T11:48:22;12.40;;;9.40;;
11731;SDS011;5922;53.734;10.258;2022-11-15T11:50:50;11.77;;;9.33;;
11731;SDS011;5922;53.734;10.258;2022-11-15T11:53:20;15.53;;;9.73;;
11731;SDS011;5922;53.734;10.258;2022-11-15T11:55:51;11.47;;;9.63;;
11731;SDS011;5922;53.734;10.258;2022-11-15T11:58:22;13.23;;;9.50;;
11731;SDS011;5922;53.734;10.258;2022-11-15T12:00:54;14.40;;;9.40;;
11731;SDS011;5922;53.734;10.258;2022-11-15T12:03:24;10.63;;;8.93;;
11731;SDS011;5922;53.734;10.258;2022-11-15T12:05:54;11.27;;;9.00;;
11731;SDS011;5922;53.734;10.258;2022-11-15T12:08:25;11.03;;;8.73;;
11731;SDS011;5922;53.734;10.258;2022-11-15T12:10:57;11.03;;;8.83;;
11731;SDS011;5922;53.734;10.258;2022-11-15T12:13:28;14.30;;;9.57;;
11731;SDS011;5922;53.734;10.258;2022-11-15T12:16:00;14.20;;;9.40;;
11731;SDS011;5922;53.734;10.258;2022-11-15T12:18:30;11.43;;;9.13;;
11731;SDS011;5922;53.734;10.258;2022-11-15T12:20:58;12.77;;;9.00;;
11731;SDS011;5922;53.734;10.258;2022-11-15T12:23:29;11.47;;;8.47;;
11731;SDS011;5922;53.734;10.258;2022-11-15T12:26:00;11.97;;;9.47;;
11731;SDS011;5922;53.734;10.258;2022-11-15T12:28:32;14.47;;;10.40;;
11731;SDS011;5922;53.734;10.258;2022-11-15T12:31:03;11.33;;;9.10;;
11731;SDS011;5922;53.734;10.258;2022-11-15T12:33:32;9.90;;;8.83;;
11731;SDS011;5922;53.734;10.258;2022-11-15T12:36:01;11.97;;;9.30;;
11731;SDS011;5922;53.734;10.258;2022-11-15T12:41:15;10.73;;;8.83;;
11731;SDS011;5922;53.734;10.258;2022-11-15T12:43:45;11.90;;;9.77;;
11731;SDS011;5922;53.734;10.258;2022-11-15T12:46:13;10.67;;;9.00;;
11731;SDS011;5922;53.734;10.258;2022-11-15T12:48:47;12.27;;;9.27;;
11731;SDS011;5922;53.734;10.258;2022-11-15T12:51:15;10.63;;;8.77;;
11731;SDS011;5922;53.734;10.258;2022-11-15T12:53:42;14.10;;;9.33;;
11731;SDS011;5922;53.734;10.258;2022-11-15T12:56:21;12.63;;;9.00;;
11731;SDS011;5922;53.734;10.258;2022-11-15T12:58:54;12.93;;;8.83;;
11731;SDS011;5922;53.734;10.258;2022-11-15T13:04:08;10.67;;;8.33;;
11731;SDS011;5922;53.734;10.258;2022-11-15T13:06:40;14.13;;;8.93;;
11731;SDS011;5922;53.734;10.258;2022-11-15T13:11:53;15.37;;;8.97;;
11731;SDS011;5922;53.734;10.258;2022-11-15T13:14:41;11.47;;;8.33;;
11731;SDS011;5922;53.734;10.258;2022-11-15T13:17:21;10.80;;;7.97;;
11731;SDS011;5922;53.734;10.258;2022-11-15T13:19:52;12.53;;;8.90;;
11731;SDS011;5922;53.734;10.258;2022-11-15T13:22:20;10.47;;;8.50;;
11731;SDS011;5922;53.734;10.258;2022-11-15T13:25:12;10.17;;;8.40;;
11731;SDS011;5922;53.734;10.258;2022-11-15T13:27:44;9.40;;;8.27;;
11731;SDS011;5922;53.734;10.258;2022-11-15T13:30:15;15.13;;;13.20;;
11731;SDS011;5922;53.734;10.258;2022-11-15T13:32:45;11.77;;;10.20;;
11731;SDS011;5922;53.734;10.258;2022-11-15T13:35:17;14.23;;;12.13;;
11731;SDS011;5922;53.734;10.258;2022-11-15T13:37:45;17.20;;;12.23;;
11731;SDS011;5922;53.734;10.258;2022-11-15T13:40:18;11.03;;;8.97;;
11731;SDS011;5922;53.734;10.258;2022-11-15T13:42:46;9.63;;;8.47;;
11731;SDS011;5922;53.734;10.258;2022-11-15T13:45:16;45.07;;;31.50;;
11731;SDS011;5922;53.734;10.258;2022-11-15T13:47:44;59.10;;;37.23;;
11731;SDS011;5922;53.734;10.258;2022-11-15T13:50:11;27.60;;;18.00;;
11731;SDS011;5922;53.734;10.258;2022-11-15T13:52:39;12.53;;;9.20;;
11731;SDS011;5922;53.734;10.258;2022-11-15T13:55:09;12.43;;;9.33;;
11731;SDS011;5922;53.734;10.258;2022-11-15T13:57:39;13.63;;;9.87;;
11731;SDS011;5922;53.734;10.258;2022-11-15T14:00:25;12.07;;;9.73;;
11731;SDS011;5922;53.734;10.258;2022-11-15T14:02:53;10.97;;;8.33;;
11731;SDS011;5922;53.734;10.258;2022-11-15T14:07:52;8.73;;;7.77;;
11731;SDS011;5922;53.734;10.258;2022-11-15T14:10:24;10.00;;;7.80;;
11731;SDS011;5922;53.734;10.258;2022-11-15T14:12:52;12.97;;;8.13;;
11731;SDS011;5922;53.734;10.258;2022-11-15T14:15:26;9.73;;;7.67;;
11731;SDS011;5922;53.734;10.258;2022-11-15T14:17:54;10.70;;;7.93;;
11731;SDS011;5922;53.734;10.258;2022-11-15T14:20:29;10.13;;;8.13;;
11731;SDS011;5922;53.734;10.258;2022-11-15T14:22:57;9.47;;;7.83;;
11731;SDS011;5922;53.734;10.258;2022-11-15T14:25:25;12.60;;;8.37;;
11731;SDS011;5922;53.734;10.258;2022-11-15T14:30:41;10.70;;;7.43;;
11731;SDS011;5922;53.734;10.258;2022-11-15T14:35:54;9.50;;;8.10;;
11731;SDS011;5922;53.734;10.258;2022-11-15T14:38:22;13.97;;;8.73;;
11731;SDS011;5922;53.734;10.258;2022-11-15T14:40:49;11.77;;;8.53;;
11731;SDS011;5922;53.734;10.258;2022-11-15T14:43:16;10.30;;;7.93;;
11731;SDS011;5922;53.734;10.258;2022-11-15T14:45:45;11.87;;;8.20;;
11731;SDS011;5922;53.734;10.258;2022-11-15T14:48:12;11.37;;;8.57;;
11731;SDS011;5922;53.734;10.258;2022-11-15T14:50:40;9.47;;;8.23;;
11731;SDS011;5922;53.734;10.258;2022-11-15T14:53:10;10.83;;;8.20;;
11731;SDS011;5922;53.734;10.258;2022-11-15T14:55:38;14.07;;;8.73;;
11731;SDS011;5922;53.734;10.258;2022-11-15T14:58:06;12.13;;;8.23;;
11731;SDS011;5922;53.734;10.258;2022-11-15T15:00:34;9.47;;;7.50;;
11731;SDS011;5922;53.734;10.258;2022-11-15T15:03:03;10.60;;;8.10;;
11731;SDS011;5922;53.734;10.258;2022-11-15T15:05:31;11.93;;;7.50;;
11731;SDS011;5922;53.734;10.258;2022-11-15T15:07:59;11.03;;;8.83;;
11731;SDS011;5922;53.734;10.258;2022-11-15T15:10:27;12.57;;;9.20;;
11731;SDS011;5922;53.734;10.258;2022-11-15T15:12:57;11.40;;;8.53;;
11731;SDS011;5922;53.734;10.258;2022-11-15T15:15:25;11.07;;;9.00;;
11731;SDS011;5922;53.734;10.258;2022-11-15T15:17:53;11.03;;;8.43;;